Time;durP1;ratioP1;P1;durP2;ratioP2;P2;SDS_P1;SDS_P2;PMS_P1;PMS_P2;Temp;Humidity;BMP_temperature;BMP_pressure;BME280_temperature;BME280_humidity;BME280_pressure;Samples;Min_cycle;Max_cycle;Signal;HPM_P1;HPM_P2
2022/07/03 15:13:55;;;;;;;5.50;2.13;;;21.70;99.90;;;;;;5210513;24;20469;-69
2022/07/03 15:16:22;;;;;;;5.00;2.63;;;21.70;99.90;;;;;;4732187;30;20060;-77
2022/07/03 15:18:47;;;;;;;6.15;2.70;;;22.10;99.90;;;;;;4736114;30;20052;-76
2022/07/03 15:21:13;;;;;;;4.60;2.08;;;22.40;99.90;;;;;;4735865;30;20106;-77
2022/07/03 15:23:39;;;;;;;5.55;2.22;;;22.70;99.90;;;;;;4735869;30;20084;-76
2022/07/03 15:26:05;;;;;;;3.10;1.83;;;23.40;99.90;;;;;;4736735;30;20469;-76
2022/07/03 15:28:32;;;;;;;3.05;1.52;;;23.60;99.90;;;;;;4735899;30;20058;-77
2022/07/03 15:30:57;;;;;;;5.88;2.22;;;23.90;99.90;;;;;;4735956;30;20060;-76
2022/07/03 15:33:26;;;;;;;6.15;2.15;;;24.20;99.90;;;;;;4736622;30;20147;-76
2022/07/03 15:36:02;;;;;;;4.50;1.50;;;23.90;99.90;;;;;;4736126;30;20048;-76
2022/07/03 15:38:55;;;;;;;4.57;1.73;;;23.40;99.90;;;;;;4736634;30;20054;-76
2022/07/03 15:41:30;;;;;;;5.13;1.85;;;23.00;99.90;;;;;;4864442;24;20069;-69
2022/07/03 15:44:41;;;;;;;3.78;1.88;;;22.80;99.90;;;;;;4718994;30;20091;-73
2022/07/03 15:47:31;;;;;;;2.88;1.77;;;22.60;99.90;;;;;;4714683;24;21197;-76
2022/07/03 15:49:59;;;;;;;7.72;2.28;;;22.40;99.90;;;;;;4729251;30;20055;-79
2022/07/03 15:52:27;;;;;;;4.38;2.10;;;22.40;99.90;;;;;;4724865;30;20048;-76
2022/07/03 15:55:09;;;;;;;4.07;2.05;;;22.40;99.90;;;;;;4720038;30;20107;-77
2022/07/03 15:57:57;;;;;;;6.00;2.33;;;22.50;99.90;;;;;;4720196;30;20049;-77
2022/07/03 16:00:24;;;;;;;6.07;2.50;;;22.40;99.90;;;;;;4705837;30;20081;-78
2022/07/03 16:03:09;;;;;;;9.05;2.80;;;22.30;99.90;;;;;;4719785;30;20045;-76
2022/07/03 16:05:36;;;;;;;5.70;2.10;;;22.40;99.90;;;;;;4719920;30;20056;-75
2022/07/03 16:08:06;;;;;;;5.28;2.05;;;22.30;99.90;;;;;;4720979;30;20053;-77
2022/07/03 16:10:33;;;;;;;4.47;1.80;;;22.30;99.90;;;;;;4720708;30;20041;-75
2022/07/03 16:12:59;;;;;;;6.53;2.08;;;22.20;99.90;;;;;;4720139;30;20124;-77
2022/07/03 16:15:30;;;;;;;4.68;1.90;;;22.20;99.90;;;;;;4719845;30;20064;-77
2022/07/03 16:17:57;;;;;;;4.75;1.70;;;22.20;99.90;;;;;;4720429;30;20142;-78
2022/07/03 16:20:27;;;;;;;3.80;1.52;;;22.30;99.90;;;;;;4705820;30;20326;-74
2022/07/03 16:22:56;;;;;;;6.78;2.05;;;22.30;99.90;;;;;;4721453;30;20139;-75
2022/07/03 16:25:24;;;;;;;4.18;2.33;;;21.90;99.90;;;;;;4721178;30;20044;-70
2022/07/03 16:27:50;;;;;;;5.15;2.13;;;21.80;99.90;;;;;;4721363;30;20055;-73
2022/07/03 16:30:16;;;;;;;5.45;2.17;;;21.70;99.90;;;;;;4721061;30;20420;-75
2022/07/03 16:32:42;;;;;;;3.88;1.60;;;21.50;99.90;;;;;;4720944;30;20501;-76
2022/07/03 16:35:15;;;;;;;4.93;1.75;;;21.60;99.90;;;;;;4691448;30;20033;-77
2022/07/03 16:37:47;;;;;;;3.20;1.60;;;21.60;99.90;;;;;;4721031;30;20073;-76
2022/07/03 16:40:13;;;;;;;3.80;1.13;;;21.70;99.90;;;;;;4719482;30;20040;-77
2022/07/03 16:42:43;;;;;;;4.38;1.33;;;21.90;99.90;;;;;;4719830;30;20053;-77
2022/07/03 16:45:10;;;;;;;3.28;1.10;;;21.80;99.90;;;;;;4719889;30;20037;-76
2022/07/03 16:47:44;;;;;;;3.22;0.80;;;21.80;99.90;;;;;;4719613;30;20114;-76
2022/07/03 16:50:14;;;;;;;3.30;1.02;;;22.30;99.90;;;;;;4719868;30;20411;-77
2022/07/03 16:52:43;;;;;;;2.53;1.10;;;22.50;99.90;;;;;;4721044;30;20048;-78
2022/07/03 16:55:09;;;;;;;3.30;1.20;;;22.60;99.90;;;;;;4720861;30;20128;-80
2022/07/03 16:57:42;;;;;;;2.88;1.17;;;22.40;99.90;;;;;;4719699;30;20331;-80
2022/07/03 17:00:10;;;;;;;3.25;1.25;;;22.20;99.90;;;;;;4719633;30;20044;-80
2022/07/03 17:02:38;;;;;;;2.78;1.13;;;22.00;99.90;;;;;;4720074;30;20060;-79
2022/07/03 17:05:04;;;;;;;4.28;1.10;;;21.90;99.90;;;;;;4720429;30;20045;-79
2022/07/03 17:07:31;;;;;;;4.47;1.75;;;21.90;99.90;;;;;;4720890;30;20328;-79
2022/07/03 17:09:58;;;;;;;2.65;1.40;;;21.90;99.90;;;;;;4720457;30;20045;-79
2022/07/03 17:12:23;;;;;;;3.42;1.52;;;21.90;99.90;;;;;;4720492;30;20476;-81
2022/07/03 17:14:49;;;;;;;3.55;1.48;;;21.70;99.90;;;;;;4719761;30;20045;-76
2022/07/03 17:17:16;;;;;;;4.30;1.65;;;21.80;99.90;;;;;;4705307;30;20207;-76
2022/07/03 17:19:52;;;;;;;5.63;1.45;;;21.70;99.90;;;;;;4720122;30;20045;-74
2022/07/03 17:22:22;;;;;;;4.80;1.58;;;21.30;99.90;;;;;;4720222;30;20041;-75
2022/07/03 17:24:52;;;;;;;3.92;1.55;;;20.50;99.90;;;;;;4720614;30;20041;-75
2022/07/03 17:27:23;;;;;;;2.95;1.48;;;20.30;99.90;;;;;;4719776;30;20037;-75
2022/07/03 17:29:53;;;;;;;3.25;1.35;;;20.30;99.90;;;;;;4720607;30;20041;-75
2022/07/03 17:32:21;;;;;;;4.43;1.63;;;20.40;99.90;;;;;;4720664;30;20375;-75
2022/07/03 17:34:51;;;;;;;4.97;1.40;;;20.30;99.90;;;;;;4720242;30;20056;-75
2022/07/03 17:37:18;;;;;;;7.50;1.75;;;20.40;99.90;;;;;;4720661;30;20096;-78
2022/07/03 17:39:46;;;;;;;4.25;1.90;;;20.40;99.90;;;;;;4735626;30;20056;-79
2022/07/03 17:42:14;;;;;;;4.65;1.77;;;20.60;99.90;;;;;;4735588;30;20051;-78
2022/07/03 17:44:41;;;;;;;4.65;1.75;;;20.80;99.90;;;;;;4737709;30;20044;-79
2022/07/03 17:47:12;;;;;;;4.13;1.73;;;21.00;99.90;;;;;;4736405;30;20065;-80
2022/07/03 17:49:44;;;;;;;2.25;1.30;;;20.80;99.90;;;;;;4738017;30;20428;-79
2022/07/03 17:52:14;;;;;;;3.75;1.83;;;20.80;99.90;;;;;;4736883;30;20063;-78
2022/07/03 17:54:40;;;;;;;2.08;1.60;;;21.00;99.90;;;;;;4737941;30;20097;-78
2022/07/03 17:59:52;;;;;;;3.42;1.90;;;21.30;99.90;;;;;;4736520;30;20075;-78
2022/07/03 18:02:18;;;;;;;3.53;1.70;;;21.20;99.90;;;;;;4737791;30;20040;-77
2022/07/03 18:04:44;;;;;;;3.80;2.13;;;21.10;99.90;;;;;;4736564;30;20125;-77
2022/07/03 18:07:10;;;;;;;4.72;1.95;;;21.20;99.90;;;;;;4737661;30;20045;-78
2022/07/03 18:09:37;;;;;;;6.68;2.25;;;21.00;99.90;;;;;;4736305;30;20059;-78
2022/07/03 18:12:10;;;;;;;3.72;2.33;;;21.10;99.90;;;;;;4736708;30;20052;-77
2022/07/03 18:14:52;;;;;;;5.35;1.88;;;21.10;99.90;;;;;;4737459;30;20036;-78
2022/07/03 18:17:19;;;;;;;3.67;1.63;;;21.10;99.90;;;;;;4737698;30;20351;-78
2022/07/03 18:19:49;;;;;;;6.97;2.08;;;21.10;99.90;;;;;;4740720;30;20431;-78
2022/07/03 18:22:15;;;;;;;3.92;1.98;;;21.20;99.90;;;;;;4739472;30;20057;-78
2022/07/03 18:24:42;;;;;;;4.00;1.60;;;21.10;99.90;;;;;;4739832;30;20102;-78
2022/07/03 18:27:15;;;;;;;8.25;1.80;;;21.30;99.90;;;;;;4740366;30;20431;-78
2022/07/03 18:29:43;;;;;;;4.68;1.90;;;21.10;99.90;;;;;;4739739;30;20049;-78
2022/07/03 18:32:14;;;;;;;3.25;1.52;;;21.30;99.90;;;;;;4732772;30;20114;-78
2022/07/03 18:34:47;;;;;;;3.92;1.48;;;21.30;99.90;;;;;;4728093;30;20055;-76
2022/07/03 18:37:13;;;;;;;4.55;1.88;;;21.30;99.90;;;;;;4739459;30;20055;-78
2022/07/03 18:39:39;;;;;;;6.95;1.63;;;21.40;99.90;;;;;;4725387;30;20463;-77
2022/07/03 18:42:05;;;;;;;3.05;1.30;;;21.50;99.90;;;;;;4722713;30;20064;-77
2022/07/03 18:44:35;;;;;;;3.80;1.30;;;21.30;99.90;;;;;;4721654;30;20135;-77
2022/07/03 18:47:02;;;;;;;4.35;1.25;;;21.30;99.90;;;;;;4707131;30;20467;-77
2022/07/03 18:49:28;;;;;;;4.70;1.85;;;21.30;99.90;;;;;;4722990;30;20053;-77
2022/07/03 18:52:03;;;;;;;6.70;1.95;;;21.30;99.90;;;;;;4721306;30;20049;-78
2022/07/03 18:54:32;;;;;;;5.65;1.50;;;21.30;99.90;;;;;;4722713;30;20055;-78
2022/07/03 18:57:02;;;;;;;5.78;1.95;;;21.30;99.90;;;;;;4721290;30;20049;-78
2022/07/03 19:00:04;;;;;;;8.82;1.77;;;21.30;99.90;;;;;;4726934;30;20131;-77
2022/07/03 19:02:52;;;;;;;5.88;1.92;;;21.20;99.90;;;;;;4724744;30;20443;-78
2022/07/03 19:05:18;;;;;;;3.05;1.35;;;21.00;99.90;;;;;;4729372;30;20056;-78
2022/07/03 19:08:06;;;;;;;4.13;1.30;;;21.00;99.90;;;;;;4725668;30;20041;-77
2022/07/03 19:10:36;;;;;;;4.45;1.10;;;20.90;99.90;;;;;;4732868;30;20106;-77
2022/07/03 19:13:07;;;;;;;3.72;1.20;;;20.90;99.90;;;;;;4726362;30;20048;-74
2022/07/03 19:15:37;;;;;;;2.40;1.27;;;21.00;99.90;;;;;;4721939;30;20049;-77
2022/07/03 19:18:03;;;;;;;3.72;1.20;;;20.90;99.90;;;;;;4706578;30;20045;-77
2022/07/03 19:20:29;;;;;;;2.55;1.10;;;20.80;99.90;;;;;;4722058;30;20114;-77
2022/07/03 19:22:55;;;;;;;3.90;1.00;;;20.70;99.90;;;;;;4722157;30;20045;-76
2022/07/03 19:25:21;;;;;;;4.80;1.20;;;20.60;99.90;;;;;;4721246;30;20060;-78
2022/07/03 19:27:46;;;;;;;4.88;0.80;;;20.40;99.90;;;;;;4721484;30;20355;-79
2022/07/03 19:30:14;;;;;;;3.42;0.80;;;20.40;99.90;;;;;;4738883;30;20423;-79
2022/07/03 19:32:41;;;;;;;2.80;0.60;;;20.30;99.90;;;;;;4720823;30;20044;-79
2022/07/03 19:35:07;;;;;;;1.55;0.75;;;20.30;99.90;;;;;;4722221;30;20238;-79
2022/07/03 19:37:33;;;;;;;3.22;0.85;;;20.20;99.90;;;;;;4720949;30;20130;-80
2022/07/03 19:39:59;;;;;;;2.22;0.70;;;20.00;99.90;;;;;;4705796;30;20437;-79
2022/07/03 19:42:24;;;;;;;2.30;0.70;;;20.00;99.90;;;;;;4721650;30;20089;-79
2022/07/03 19:44:50;;;;;;;8.50;1.20;;;19.90;99.90;;;;;;4710592;30;20384;-79
2022/07/03 19:47:16;;;;;;;2.50;0.60;;;19.90;99.90;;;;;;4720602;30;20057;-80
2022/07/03 19:49:41;;;;;;;2.42;0.70;;;19.90;99.90;;;;;;4706115;30;20092;-80
2022/07/03 19:52:07;;;;;;;2.95;0.77;;;19.80;99.90;;;;;;4697187;30;20398;-81
2022/07/03 19:54:33;;;;;;;1.95;0.93;;;19.70;99.90;;;;;;4727234;30;20127;-81
2022/07/03 19:57:00;;;;;;;2.63;0.73;;;19.60;99.90;;;;;;4710990;30;20199;-81
2022/07/03 19:59:26;;;;;;;2.45;0.70;;;19.50;99.90;;;;;;4722820;30;20057;-80
2022/07/03 20:01:51;;;;;;;2.95;0.85;;;19.40;99.90;;;;;;4720919;30;20057;-79
2022/07/03 20:04:18;;;;;;;5.28;0.75;;;19.40;99.90;;;;;;4719687;30;20145;-80
2022/07/03 20:06:44;;;;;;;1.83;0.60;;;19.30;99.90;;;;;;4732495;30;20368;-77
2022/07/03 20:09:10;;;;;;;2.45;0.80;;;19.20;99.90;;;;;;4738181;30;20080;-75
2022/07/03 20:11:36;;;;;;;3.63;0.70;;;19.20;99.90;;;;;;4721419;30;20085;-73
2022/07/03 20:14:02;;;;;;;2.67;0.88;;;19.10;99.90;;;;;;4721758;30;20124;-75
2022/07/03 20:16:27;;;;;;;5.30;1.00;;;19.10;99.90;;;;;;4730038;30;20380;-74
2022/07/03 20:18:53;;;;;;;2.60;0.70;;;19.00;99.90;;;;;;4737165;30;20075;-76
2022/07/03 20:21:19;;;;;;;3.53;0.80;;;19.00;99.90;;;;;;4738519;30;20126;-75
2022/07/03 20:26:28;;;;;;;3.08;0.85;;;18.80;99.90;;;;;;4720004;30;20080;-75
2022/07/03 20:28:54;;;;;;;2.55;0.80;;;18.70;99.90;;;;;;4719486;30;20045;-75
2022/07/03 20:31:20;;;;;;;2.97;0.80;;;18.70;99.90;;;;;;4732297;30;20048;-75
2022/07/03 20:33:45;;;;;;;2.35;0.77;;;18.70;99.90;;;;;;4720900;30;20048;-74
2022/07/03 20:36:12;;;;;;;4.32;1.10;;;18.60;99.90;;;;;;4736425;30;20083;-73
2022/07/03 20:38:38;;;;;;;2.90;0.80;;;18.50;99.90;;;;;;4738790;30;20372;-73
2022/07/03 20:41:04;;;;;;;2.78;0.80;;;18.50;99.90;;;;;;4737619;30;20084;-73
2022/07/03 20:43:30;;;;;;;2.35;0.80;;;18.40;99.90;;;;;;4737555;30;20103;-73
2022/07/03 20:45:55;;;;;;;4.70;1.20;;;18.30;99.90;;;;;;4738348;30;20501;-73
2022/07/03 20:48:21;;;;;;;2.53;0.60;;;18.20;99.90;;;;;;4737048;30;20454;-73
2022/07/03 20:50:47;;;;;;;2.25;0.90;;;18.20;99.90;;;;;;4738060;30;20078;-73
2022/07/03 20:53:12;;;;;;;2.00;0.70;;;18.20;99.90;;;;;;4737181;30;20183;-73
2022/07/03 20:55:39;;;;;;;1.55;0.80;;;18.20;99.90;;;;;;4737239;30;20045;-73
2022/07/03 20:58:06;;;;;;;1.95;0.80;;;18.20;99.90;;;;;;4737166;30;20506;-73
2022/07/03 21:00:32;;;;;;;2.63;0.65;;;18.10;99.90;;;;;;4738312;30;20174;-72
2022/07/03 21:02:57;;;;;;;2.33;0.70;;;18.00;99.90;;;;;;4738158;30;20132;-73
2022/07/03 21:05:23;;;;;;;3.35;0.77;;;18.00;99.90;;;;;;4737978;30;20059;-73
2022/07/03 21:07:48;;;;;;;2.22;0.80;;;18.00;99.90;;;;;;4737626;30;20048;-72
2022/07/03 21:10:14;;;;;;;2.60;0.93;;;17.90;99.90;;;;;;4737903;30;20138;-72
2022/07/03 21:12:40;;;;;;;2.03;0.73;;;17.90;99.90;;;;;;4738071;30;20419;-72
2022/07/03 21:15:06;;;;;;;2.47;0.80;;;17.90;99.90;;;;;;4738187;30;20431;-73
2022/07/03 21:17:32;;;;;;;2.67;1.02;;;17.80;99.90;;;;;;4738279;30;20343;-73
2022/07/03 21:19:57;;;;;;;4.28;1.10;;;17.70;99.90;;;;;;4736804;30;20040;-72
2022/07/03 21:22:23;;;;;;;3.67;1.10;;;17.60;99.90;;;;;;4736458;30;20509;-73
2022/07/03 21:24:49;;;;;;;3.88;0.90;;;17.60;99.90;;;;;;4738041;30;20048;-73
2022/07/03 21:27:15;;;;;;;3.53;0.98;;;17.50;99.90;;;;;;4737819;30;20076;-72
2022/07/03 21:29:41;;;;;;;4.18;1.05;;;17.40;99.90;;;;;;4722421;30;20410;-73
2022/07/03 21:32:08;;;;;;;2.47;1.10;;;17.50;99.90;;;;;;4737940;30;20114;-72
2022/07/03 21:34:33;;;;;;;3.60;0.85;;;17.40;99.90;;;;;;4737679;30;20153;-73
2022/07/03 21:37:01;;;;;;;2.22;1.00;;;17.40;99.90;;;;;;4736884;30;20044;-73
2022/07/03 21:39:26;;;;;;;2.22;1.17;;;17.40;99.90;;;;;;4736592;30;20383;-73
2022/07/03 21:41:52;;;;;;;3.25;1.10;;;17.40;99.90;;;;;;4736760;30;20106;-73
2022/07/03 21:44:18;;;;;;;4.25;1.00;;;17.30;99.90;;;;;;4737719;30;20048;-72
2022/07/03 21:46:47;;;;;;;1.75;0.90;;;17.30;99.90;;;;;;4737615;30;20044;-73
2022/07/03 21:49:14;;;;;;;4.63;1.30;;;17.30;99.90;;;;;;4737612;30;20056;-73
2022/07/03 21:51:40;;;;;;;3.33;1.50;;;17.30;99.90;;;;;;4737674;30;20076;-73
2022/07/03 21:54:06;;;;;;;5.05;1.20;;;17.30;99.90;;;;;;4740198;30;20068;-72
2022/07/03 21:56:32;;;;;;;1.55;0.90;;;17.30;99.90;;;;;;4724987;30;20139;-72
2022/07/03 21:58:57;;;;;;;4.05;1.00;;;17.30;99.90;;;;;;4741033;30;20080;-72
2022/07/03 22:01:23;;;;;;;3.15;0.85;;;17.40;99.90;;;;;;4741392;30;20297;-72
2022/07/03 22:03:50;;;;;;;2.33;1.00;;;17.30;99.90;;;;;;4739843;30;20082;-73
2022/07/03 22:06:15;;;;;;;2.13;0.70;;;17.20;99.90;;;;;;4739689;30;20086;-72
2022/07/03 22:08:41;;;;;;;2.83;1.20;;;17.10;99.90;;;;;;4740978;30;20043;-72
2022/07/03 22:11:07;;;;;;;1.98;1.00;;;17.10;99.90;;;;;;4739722;30;20052;-72
2022/07/03 22:13:32;;;;;;;2.33;0.95;;;17.10;99.90;;;;;;4740242;30;20507;-72
2022/07/03 22:15:58;;;;;;;1.67;0.93;;;17.10;99.90;;;;;;4739359;30;20065;-73
2022/07/03 22:18:24;;;;;;;5.93;1.13;;;17.00;99.90;;;;;;4739876;30;20092;-72
2022/07/03 22:20:50;;;;;;;4.30;1.13;;;16.90;99.90;;;;;;4739859;30;20059;-72
2022/07/03 22:23:16;;;;;;;2.13;1.35;;;16.90;99.90;;;;;;4739665;30;20048;-72
2022/07/03 22:25:41;;;;;;;2.75;1.35;;;16.80;99.90;;;;;;4740655;30;20106;-72
2022/07/03 22:28:08;;;;;;;2.42;1.13;;;16.80;99.90;;;;;;4740493;30;20055;-72
2022/07/03 22:30:34;;;;;;;2.63;1.40;;;16.70;99.90;;;;;;4740681;30;20040;-72
2022/07/03 22:33:00;;;;;;;4.30;1.25;;;16.80;99.90;;;;;;4739331;30;20375;-73
2022/07/03 22:35:26;;;;;;;3.25;1.60;;;16.80;99.90;;;;;;4740651;30;20076;-72
2022/07/03 22:37:52;;;;;;;3.10;1.30;;;16.80;99.90;;;;;;4740411;30;20087;-73
2022/07/03 22:40:18;;;;;;;3.83;1.52;;;16.90;99.90;;;;;;4740114;30;20079;-72
2022/07/03 22:42:52;;;;;;;3.60;1.30;;;16.80;99.90;;;;;;4740493;30;20080;-73
2022/07/03 22:45:18;;;;;;;2.38;1.48;;;16.80;99.90;;;;;;4740379;30;20447;-72
2022/07/03 22:47:44;;;;;;;3.25;1.73;;;16.80;99.90;;;;;;4738166;30;20092;-73
2022/07/03 22:50:10;;;;;;;2.80;1.55;;;16.70;99.90;;;;;;4739328;30;20382;-72
2022/07/03 22:52:36;;;;;;;2.90;1.40;;;16.60;99.90;;;;;;4738966;30;20498;-72
2022/07/03 22:55:02;;;;;;;2.45;1.27;;;16.50;99.90;;;;;;4739211;30;20128;-72
2022/07/03 22:57:28;;;;;;;4.35;1.52;;;16.50;99.90;;;;;;4723852;30;20053;-72
2022/07/03 22:59:54;;;;;;;3.97;1.38;;;16.50;99.90;;;;;;4737906;30;20056;-72
2022/07/03 23:02:20;;;;;;;2.58;1.45;;;16.50;99.90;;;;;;4738679;30;20055;-73
2022/07/03 23:04:46;;;;;;;1.83;1.17;;;16.40;99.90;;;;;;4737538;30;20051;-72
2022/07/03 23:07:12;;;;;;;3.60;1.50;;;16.40;99.90;;;;;;4737858;30;20049;-72
2022/07/03 23:09:37;;;;;;;2.70;1.42;;;16.50;99.90;;;;;;4737493;30;20464;-72
2022/07/03 23:12:04;;;;;;;2.05;1.40;;;16.50;99.90;;;;;;4737634;30;20269;-72
2022/07/03 23:14:29;;;;;;;3.92;1.50;;;16.40;99.90;;;;;;4738670;30;20055;-72
2022/07/03 23:16:55;;;;;;;2.72;1.20;;;16.30;99.90;;;;;;4738383;30;20044;-72
2022/07/03 23:19:21;;;;;;;3.70;1.50;;;16.30;99.90;;;;;;4736765;30;20055;-72
2022/07/03 23:21:46;;;;;;;2.00;1.40;;;16.30;99.90;;;;;;4738447;30;20049;-72
2022/07/03 23:24:12;;;;;;;3.75;1.60;;;16.40;99.90;;;;;;4738440;30;20055;-72
2022/07/03 23:26:37;;;;;;;2.75;1.60;;;16.40;99.90;;;;;;4738309;30;20128;-72
2022/07/03 23:29:03;;;;;;;2.15;1.60;;;16.40;99.90;;;;;;4738555;30;20073;-72
2022/07/03 23:31:29;;;;;;;2.13;1.52;;;16.30;99.90;;;;;;4738317;30;20102;-72
2022/07/03 23:33:54;;;;;;;5.65;1.83;;;16.20;99.90;;;;;;4738514;30;20052;-72
2022/07/03 23:36:20;;;;;;;2.58;1.58;;;16.10;99.90;;;;;;4737193;30;20052;-72
2022/07/03 23:38:45;;;;;;;2.22;1.42;;;16.00;99.90;;;;;;4738321;30;20051;-72
2022/07/03 23:41:11;;;;;;;5.30;1.83;;;16.00;99.90;;;;;;4737987;30;20127;-72
2022/07/03 23:43:37;;;;;;;4.03;1.75;;;15.90;99.90;;;;;;4738222;30;20408;-72
2022/07/03 23:46:02;;;;;;;3.45;1.80;;;16.00;99.90;;;;;;4738091;30;20074;-72
2022/07/03 23:51:12;;;;;;;4.50;2.05;;;15.90;99.90;;;;;;4738566;30;19923;-72
2022/07/03 23:53:38;;;;;;;7.60;1.73;;;15.90;99.90;;;;;;4739067;30;20343;-72
2022/07/03 23:56:04;;;;;;;4.78;1.90;;;15.90;99.90;;;;;;4738162;30;20060;-72
2022/07/03 23:58:30;;;;;;;3.05;1.77;;;15.90;99.90;;;;;;4723533;30;20382;-73
